createdAt,value
2023-03-19T00:00:43.788Z,11.30
2023-03-19T00:05:54.379Z,11.30
2023-03-19T00:10:57.669Z,11.40
2023-03-19T00:16:01.625Z,11.50
2023-03-19T00:21:07.219Z,11.40
2023-03-19T00:26:10.258Z,11.50
2023-03-19T00:31:16.538Z,11.50
2023-03-19T00:36:21.692Z,11.50
2023-03-19T00:41:25.085Z,11.50
2023-03-19T00:46:28.538Z,11.50
2023-03-19T00:51:33.201Z,11.50
2023-03-19T00:56:36.552Z,11.50
2023-03-19T01:01:39.921Z,11.60
2023-03-19T01:06:45.555Z,11.60
2023-03-19T01:11:48.582Z,11.70
2023-03-19T01:16:52.328Z,11.70
2023-03-19T01:21:57.358Z,11.60
2023-03-19T01:27:01.505Z,11.60
2023-03-19T01:32:09.922Z,11.60
2023-03-19T01:37:34.282Z,11.50
2023-03-19T01:42:54.076Z,11.40
2023-03-19T01:48:27.004Z,11.30
2023-03-19T01:53:50.272Z,11.30
2023-03-19T01:59:05.245Z,11.20
2023-03-19T02:04:35.238Z,11.20
2023-03-19T02:09:41.130Z,11.10
2023-03-19T02:14:44.524Z,11.10
2023-03-19T02:19:55.313Z,11.10
2023-03-19T02:25:03.678Z,11.10
2023-03-19T02:30:23.850Z,11.20
2023-03-19T02:35:27.985Z,11.20
2023-03-19T02:40:35.493Z,11.20
2023-03-19T02:45:40.677Z,11.20
2023-03-19T02:50:43.933Z,11.30
2023-03-19T02:55:47.213Z,11.20
2023-03-19T03:00:52.804Z,11.30
2023-03-19T03:05:57.085Z,11.20
2023-03-19T03:11:00.336Z,11.30
2023-03-19T03:16:05.168Z,11.30
2023-03-19T03:21:08.485Z,11.30
2023-03-19T03:26:11.982Z,11.30
2023-03-19T03:31:16.977Z,11.30
2023-03-19T03:36:20.359Z,11.30
2023-03-19T03:41:23.644Z,11.30
2023-03-19T03:46:28.637Z,11.30
2023-03-19T03:51:32.955Z,11.30
2023-03-19T03:56:36.694Z,11.30
2023-03-19T04:01:41.424Z,11.40
2023-03-19T04:06:45.175Z,11.40
2023-03-19T04:12:02.300Z,11.40
2023-03-19T04:17:07.097Z,11.40
2023-03-19T04:22:10.507Z,11.40
2023-03-19T04:27:14.131Z,11.40
2023-03-19T04:32:19.189Z,11.30
2023-03-19T04:37:22.921Z,11.30
2023-03-19T04:42:33.120Z,11.20
2023-03-19T04:47:45.501Z,11.10
2023-03-19T04:52:49.750Z,10.90
2023-03-19T04:57:53.579Z,10.50
2023-03-19T05:03:03.536Z,10.30
2023-03-19T05:08:08.740Z,10.10
2023-03-19T05:13:12.625Z,9.90
2023-03-19T05:18:23.329Z,9.70
2023-03-19T05:23:26.762Z,9.60
2023-03-19T05:28:40.024Z,9.50
2023-03-19T05:33:44.861Z,9.40
2023-03-19T05:38:48.788Z,9.50
2023-03-19T05:44:00.554Z,9.50
2023-03-19T05:49:25.942Z,9.60
2023-03-19T05:54:29.257Z,9.70
2023-03-19T05:59:42.685Z,9.80
2023-03-19T06:05:01.781Z,9.90
2023-03-19T06:10:08.247Z,10.00
2023-03-19T06:15:12.823Z,10.10
2023-03-19T06:20:23.084Z,10.30
2023-03-19T06:25:27.441Z,10.50
2023-03-19T06:30:31.404Z,10.60
2023-03-19T06:35:38.941Z,10.70
2023-03-19T06:40:42.676Z,11.00
2023-03-19T06:45:47.179Z,11.20
2023-03-19T06:50:51.810Z,11.40
2023-03-19T06:55:56.072Z,11.60
2023-03-19T07:00:59.875Z,11.90
2023-03-19T07:06:05.303Z,12.00
2023-03-19T07:11:08.930Z,12.10
2023-03-19T07:16:12.135Z,12.30
2023-03-19T07:21:17.135Z,12.40
2023-03-19T07:26:20.417Z,12.60
2023-03-19T07:31:24.559Z,12.70
2023-03-19T07:36:29.365Z,12.90
2023-03-19T07:41:32.942Z,13.00
2023-03-19T07:46:36.584Z,13.30
2023-03-19T07:51:41.233Z,13.50
2023-03-19T07:56:44.533Z,13.80
2023-03-19T08:01:48.343Z,14.00
2023-03-19T08:06:53.752Z,14.00
2023-03-19T08:11:57.030Z,14.00
2023-03-19T08:17:00.864Z,14.10
2023-03-19T08:22:06.215Z,14.30
2023-03-19T08:27:10.168Z,14.70
2023-03-19T08:32:13.905Z,15.10
2023-03-19T08:37:18.910Z,15.50
2023-03-19T08:42:23.057Z,16.10
2023-03-19T08:47:26.850Z,16.50
2023-03-19T08:52:32.287Z,16.80
2023-03-19T08:57:36.006Z,16.90
2023-03-19T09:02:40.391Z,16.80
2023-03-19T09:07:45.547Z,16.60
2023-03-19T09:12:48.883Z,16.70
2023-03-19T09:17:52.176Z,16.80
2023-03-19T09:22:56.844Z,16.80
2023-03-19T09:28:00.116Z,16.90
2023-03-19T09:33:03.406Z,17.10
2023-03-19T09:38:08.185Z,17.40
2023-03-19T09:43:40.891Z,17.70
2023-03-19T09:48:52.203Z,17.80
2023-03-19T09:53:59.441Z,18.00
2023-03-19T09:59:03.303Z,18.20
2023-03-19T10:04:25.786Z,18.60
2023-03-19T10:09:43.131Z,18.70
2023-03-19T10:15:15.290Z,18.80
2023-03-19T10:20:26.401Z,18.80
2023-03-19T10:25:34.318Z,18.90
2023-03-19T10:30:38.563Z,19.10
2023-03-19T10:35:45.943Z,19.40
2023-03-19T10:41:04.870Z,19.30
2023-03-19T10:46:13.943Z,19.30
2023-03-19T10:51:20.293Z,19.30
2023-03-19T10:56:27.739Z,19.20
2023-03-19T11:01:35.470Z,19.20
2023-03-19T11:06:42.189Z,19.50
2023-03-19T11:11:50.789Z,19.60
2023-03-19T11:16:58.976Z,19.50
2023-03-19T11:22:09.146Z,19.00
2023-03-19T11:27:13.900Z,18.80
2023-03-19T11:32:34.531Z,19.00
2023-03-19T11:37:54.471Z,19.30
2023-03-19T11:43:38.738Z,19.40
2023-03-19T11:49:07.657Z,19.00
2023-03-19T11:54:22.211Z,18.60
2023-03-19T11:59:47.078Z,18.80
2023-03-19T12:05:10.063Z,18.80
2023-03-19T12:10:31.306Z,19.00
2023-03-19T12:15:46.433Z,19.50
2023-03-19T12:21:00.738Z,19.50
2023-03-19T12:26:06.636Z,19.60
2023-03-19T12:31:28.217Z,19.30
2023-03-19T12:36:35.385Z,18.70
2023-03-19T12:41:43.491Z,18.60
2023-03-19T12:46:59.014Z,18.50
2023-03-19T12:52:10.107Z,18.30
2023-03-19T12:57:20.925Z,17.90
2023-03-19T13:02:32.064Z,17.40
2023-03-19T13:07:44.498Z,17.20
2023-03-19T13:12:51.382Z,17.10
2023-03-19T13:18:04.512Z,16.90
2023-03-19T13:23:09.549Z,17.00
2023-03-19T13:28:19.212Z,17.00
2023-03-19T13:33:24.822Z,16.80
2023-03-19T13:38:32.174Z,16.40
2023-03-19T13:43:54.590Z,15.80
2023-03-19T13:49:10.345Z,15.50
2023-03-19T13:54:18.437Z,15.30
2023-03-19T13:59:27.439Z,15.20
2023-03-19T14:04:33.682Z,15.10
2023-03-19T14:09:42.627Z,14.90
2023-03-19T14:14:49.219Z,14.70
2023-03-19T14:19:55.167Z,14.60
2023-03-19T14:25:14.424Z,14.70
2023-03-19T14:30:30.988Z,14.70
2023-03-19T14:35:40.355Z,14.70
2023-03-19T14:40:47.037Z,14.70
2023-03-19T14:45:58.987Z,14.70
2023-03-19T14:51:22.485Z,14.70
2023-03-19T14:56:28.267Z,14.70
2023-03-19T15:01:34.362Z,14.70
2023-03-19T15:06:42.560Z,14.70
2023-03-19T15:12:11.766Z,14.70
2023-03-19T15:17:21.954Z,14.60
2023-03-19T15:22:32.423Z,14.70
2023-03-19T15:27:36.273Z,14.70
2023-03-19T15:33:02.710Z,14.60
2023-03-19T15:38:10.147Z,14.60
2023-03-19T15:43:14.844Z,14.50
2023-03-19T15:48:22.966Z,14.40
2023-03-19T15:53:32.632Z,14.40
2023-03-19T15:58:41.700Z,14.40
2023-03-19T16:03:47.102Z,14.30
2023-03-19T16:08:54.233Z,14.30
2023-03-19T16:14:02.995Z,14.30
2023-03-19T16:19:06.507Z,14.30
2023-03-19T16:24:24.247Z,14.10
2023-03-19T16:29:28.964Z,14.10
2023-03-19T16:34:40.941Z,14.00
2023-03-19T16:39:56.008Z,14.00
2023-03-19T16:45:03.610Z,14.10
2023-03-19T16:50:07.964Z,14.00
2023-03-19T16:55:20.921Z,13.90
2023-03-19T17:00:26.291Z,13.90
2023-03-19T17:05:31.386Z,13.90
2023-03-19T17:10:38.564Z,13.70
2023-03-19T17:15:43.327Z,13.70
2023-03-19T17:20:52.200Z,13.60
2023-03-19T17:25:57.338Z,13.50
2023-03-19T17:31:00.929Z,13.40
2023-03-19T17:36:04.492Z,13.40
2023-03-19T17:41:16.865Z,13.40
2023-03-19T17:46:23.647Z,13.30
2023-03-19T17:51:27.671Z,13.30
2023-03-19T17:56:32.763Z,13.30
2023-03-19T18:01:36.669Z,13.20
2023-03-19T18:06:44.107Z,13.10
2023-03-19T18:11:48.845Z,13.10
2023-03-19T18:16:52.441Z,13.00
2023-03-19T18:21:56.137Z,12.90
2023-03-19T18:27:01.161Z,12.80
2023-03-19T18:32:07.675Z,12.70
2023-03-19T18:37:16.044Z,12.80
2023-03-19T18:42:21.113Z,12.80
2023-03-19T18:47:24.429Z,12.80
2023-03-19T18:52:27.794Z,12.80
2023-03-19T18:57:35.015Z,12.80
2023-03-19T19:02:38.637Z,12.70
2023-03-19T19:07:42.121Z,12.60
2023-03-19T19:12:59.749Z,12.50
2023-03-19T19:18:07.113Z,12.30
2023-03-19T19:23:11.406Z,12.10
2023-03-19T19:28:21.802Z,12.00
2023-03-19T19:33:28.766Z,11.90
2023-03-19T19:38:32.393Z,11.80
2023-03-19T19:43:37.136Z,11.80
2023-03-19T19:48:40.762Z,11.80
2023-03-19T19:53:44.117Z,11.80
2023-03-19T19:58:51.252Z,11.70
2023-03-19T20:03:54.885Z,11.60
2023-03-19T20:08:58.345Z,11.50
2023-03-19T20:14:03.094Z,11.40
2023-03-19T20:19:07.306Z,11.30
2023-03-19T20:24:10.950Z,11.30
2023-03-19T20:29:16.726Z,11.30
2023-03-19T20:34:36.420Z,11.10
2023-03-19T20:39:42.248Z,10.90
2023-03-19T20:44:47.380Z,10.80
2023-03-19T20:49:51.283Z,10.60
2023-03-19T20:54:54.841Z,10.50
2023-03-19T21:00:03.085Z,10.30
2023-03-19T21:05:07.827Z,10.30
2023-03-19T21:10:22.366Z,10.30
2023-03-19T21:15:27.475Z,10.20
2023-03-19T21:20:32.486Z,10.20
2023-03-19T21:25:37.101Z,10.30
2023-03-19T21:30:45.869Z,10.50
2023-03-19T21:35:49.285Z,10.50
2023-03-19T21:40:55.443Z,10.50
2023-03-19T21:46:04.169Z,10.60
2023-03-19T21:51:16.323Z,10.60
2023-03-19T21:56:23.874Z,10.70
2023-03-19T22:01:28.500Z,10.70
2023-03-19T22:06:32.802Z,10.80
2023-03-19T22:11:38.176Z,10.80
2023-03-19T22:16:44.743Z,10.90
2023-03-19T22:21:49.510Z,10.90
2023-03-19T22:26:58.668Z,10.90
2023-03-19T22:32:03.677Z,11.00
2023-03-19T22:37:23.337Z,11.10
2023-03-19T22:42:28.038Z,11.10
2023-03-19T22:47:36.691Z,11.20
2023-03-19T22:52:40.290Z,11.30
2023-03-19T22:57:43.782Z,11.20
2023-03-19T23:02:54.725Z,11.30
2023-03-19T23:07:58.122Z,11.30
2023-03-19T23:13:01.754Z,11.40
2023-03-19T23:18:16.154Z,11.40
2023-03-19T23:23:19.722Z,11.40
2023-03-19T23:28:25.487Z,11.40
2023-03-19T23:33:31.262Z,11.50
2023-03-19T23:38:34.838Z,11.40
2023-03-19T23:43:38.119Z,11.40
2023-03-19T23:48:43.132Z,11.30
2023-03-19T23:53:47.087Z,11.30
2023-03-19T23:58:53.043Z,11.30
